createdAt,value
2022-12-18T00:01:39.428Z,27.10
2022-12-18T00:04:18.266Z,24.30
2022-12-18T00:06:47.921Z,26.30
2022-12-18T00:09:18.349Z,24.60
2022-12-18T00:11:48.790Z,25.40
2022-12-18T00:14:19.764Z,25.80
2022-12-18T00:16:50.351Z,25.60
2022-12-18T00:19:20.757Z,24.50
2022-12-18T00:21:50.012Z,25.30
2022-12-18T00:24:20.184Z,21.70
2022-12-18T00:26:52.502Z,21.00
2022-12-18T00:29:23.195Z,21.70
2022-12-18T00:31:52.300Z,21.50
2022-12-18T00:34:21.386Z,23.10
2022-12-18T00:36:51.709Z,25.30
2022-12-18T00:39:20.729Z,24.40
2022-12-18T00:42:58.637Z,23.70
2022-12-18T00:45:31.634Z,20.90
2022-12-18T00:48:00.859Z,21.50
2022-12-18T00:50:32.055Z,21.70
2022-12-18T00:53:02.844Z,25.20
2022-12-18T00:55:33.193Z,21.70
2022-12-18T00:58:04.152Z,23.00
2022-12-18T01:00:34.721Z,23.10
2022-12-18T01:03:05.506Z,22.00
2022-12-18T01:05:35.929Z,24.30
2022-12-18T01:08:06.353Z,21.30
2022-12-18T01:10:35.919Z,22.00
2022-12-18T01:13:06.613Z,19.30
2022-12-18T01:15:35.645Z,21.30
2022-12-18T01:18:09.023Z,21.90
2022-12-18T01:20:39.895Z,20.90
2022-12-18T01:23:09.253Z,20.70
2022-12-18T01:25:38.310Z,22.60
2022-12-18T01:28:07.976Z,21.50
2022-12-18T01:30:39.524Z,21.90
2022-12-18T01:33:10.000Z,20.40
2022-12-18T01:35:43.958Z,20.60
2022-12-18T01:38:13.366Z,20.60
2022-12-18T01:40:43.036Z,23.00
2022-12-18T01:47:26.877Z,20.20
2022-12-18T01:49:58.465Z,25.60
2022-12-18T01:52:32.640Z,24.80
2022-12-18T01:55:04.798Z,22.60
2022-12-18T01:57:35.240Z,28.30
2022-12-18T02:00:11.017Z,22.80
2022-12-18T02:02:45.403Z,21.20
2022-12-18T02:05:20.447Z,22.60
2022-12-18T02:08:00.033Z,20.00
2022-12-18T02:10:42.286Z,22.80
2022-12-18T02:13:22.568Z,26.60
2022-12-18T02:16:14.817Z,24.90
2022-12-18T02:18:49.150Z,25.80
2022-12-18T02:21:27.374Z,25.70
2022-12-18T02:24:39.834Z,22.60
2022-12-18T02:27:10.929Z,23.20
2022-12-18T02:29:58.740Z,23.80
2022-12-18T02:32:36.150Z,26.00
2022-12-18T02:35:09.253Z,23.00
2022-12-18T02:37:42.543Z,25.20
2022-12-18T02:40:14.903Z,23.20
2022-12-18T02:47:07.368Z,22.90
2022-12-18T02:49:56.246Z,21.40
2022-12-18T02:52:55.295Z,22.30
2022-12-18T02:55:51.407Z,21.40
2022-12-18T02:58:44.464Z,21.60
2022-12-18T03:01:29.871Z,24.10
2022-12-18T03:04:13.634Z,22.90
2022-12-18T03:06:49.000Z,21.60
2022-12-18T03:09:29.856Z,22.50
2022-12-18T03:12:24.493Z,22.70
2022-12-18T03:15:23.699Z,25.70
2022-12-18T03:18:10.905Z,24.20
2022-12-18T03:20:42.551Z,21.60
2022-12-18T03:23:17.289Z,25.20
2022-12-18T03:25:52.964Z,27.60
2022-12-18T03:28:24.618Z,30.70
2022-12-18T03:31:02.804Z,29.70
2022-12-18T03:33:52.375Z,32.20
2022-12-18T03:36:25.137Z,33.10
2022-12-18T03:38:56.014Z,33.20
2022-12-18T03:42:47.984Z,30.00
2022-12-18T03:45:25.099Z,28.30
2022-12-18T03:47:57.286Z,30.40
2022-12-18T03:50:47.497Z,31.00
2022-12-18T03:53:28.051Z,28.80
2022-12-18T03:56:01.721Z,29.90
2022-12-18T03:58:38.139Z,34.00
2022-12-18T04:01:24.776Z,28.10
2022-12-18T04:03:55.384Z,30.80
2022-12-18T04:06:25.066Z,28.90
2022-12-18T04:08:55.788Z,30.10
2022-12-18T04:11:26.175Z,31.70
2022-12-18T04:13:59.954Z,30.70
2022-12-18T04:16:30.554Z,34.50
2022-12-18T04:19:03.408Z,30.60
2022-12-18T04:21:34.452Z,32.10
2022-12-18T04:24:05.054Z,30.70
2022-12-18T04:26:36.377Z,27.80
2022-12-18T04:29:31.521Z,25.90
2022-12-18T04:32:02.477Z,30.00
2022-12-18T04:34:33.600Z,26.40
2022-12-18T04:37:04.251Z,25.70
2022-12-18T04:39:34.704Z,24.10
2022-12-18T04:42:08.208Z,24.90
2022-12-18T04:44:38.925Z,24.20
2022-12-18T04:47:08.956Z,25.50
2022-12-18T04:49:40.199Z,27.50
2022-12-18T04:52:10.494Z,20.40
2022-12-18T04:54:41.485Z,23.50
2022-12-18T04:57:11.475Z,21.80
2022-12-18T04:59:41.996Z,23.60
2022-12-18T05:02:11.439Z,21.60
2022-12-18T05:04:40.834Z,21.20
2022-12-18T05:07:09.993Z,24.40
2022-12-18T05:09:39.209Z,26.60
2022-12-18T05:12:08.879Z,25.90
2022-12-18T05:14:38.197Z,20.20
2022-12-18T05:17:09.847Z,20.00
2022-12-18T05:19:41.824Z,19.50
2022-12-18T05:22:13.045Z,19.20
2022-12-18T05:24:43.528Z,19.70
2022-12-18T05:27:13.966Z,18.90
2022-12-18T05:29:43.335Z,21.80
2022-12-18T05:32:12.276Z,20.60
2022-12-18T05:34:45.144Z,21.00
2022-12-18T05:37:14.317Z,20.70
2022-12-18T05:39:45.945Z,18.70
2022-12-18T05:43:06.072Z,23.10
2022-12-18T05:45:39.610Z,22.20
2022-12-18T05:48:10.246Z,23.40
2022-12-18T05:50:46.705Z,22.40
2022-12-18T05:53:18.476Z,19.10
2022-12-18T05:55:50.415Z,22.10
2022-12-18T05:58:20.057Z,25.00
2022-12-18T06:00:50.479Z,23.70
2022-12-18T06:03:19.593Z,26.60
2022-12-18T06:05:51.735Z,23.40
2022-12-18T06:08:21.621Z,26.60
2022-12-18T06:10:56.377Z,27.80
2022-12-18T06:13:25.443Z,27.70
2022-12-18T06:15:54.731Z,24.20
2022-12-18T06:18:23.933Z,25.10
2022-12-18T06:20:58.196Z,25.20
2022-12-18T06:23:28.539Z,26.10
2022-12-18T06:25:56.988Z,27.60
2022-12-18T06:28:40.219Z,23.20
2022-12-18T06:31:11.170Z,26.50
2022-12-18T06:33:41.572Z,26.50
2022-12-18T06:36:13.999Z,28.00
2022-12-18T06:38:46.033Z,32.60
2022-12-18T06:41:18.572Z,24.30
2022-12-18T06:43:48.853Z,24.60
2022-12-18T06:46:21.484Z,27.70
2022-12-18T06:48:52.319Z,26.80
2022-12-18T06:51:25.252Z,26.90
2022-12-18T06:53:54.626Z,26.80
2022-12-18T06:56:25.130Z,29.10
2022-12-18T06:58:54.359Z,28.60
2022-12-18T07:01:24.843Z,29.50
2022-12-18T07:03:57.002Z,29.20
2022-12-18T07:06:27.297Z,29.50
2022-12-18T07:08:56.917Z,36.10
2022-12-18T07:11:30.117Z,35.70
2022-12-18T07:14:01.770Z,35.00
2022-12-18T07:16:33.295Z,32.70
2022-12-18T07:19:03.122Z,35.50
2022-12-18T07:21:32.477Z,32.20
2022-12-18T07:24:02.806Z,28.60
2022-12-18T07:26:31.919Z,30.90
2022-12-18T07:29:00.887Z,29.40
2022-12-18T07:31:30.303Z,30.60
2022-12-18T07:33:59.769Z,46.90
2022-12-18T07:36:29.083Z,37.20
2022-12-18T07:38:58.801Z,31.60
2022-12-18T07:42:42.531Z,28.70
2022-12-18T07:45:13.160Z,27.20
2022-12-18T07:47:42.809Z,35.40
2022-12-18T07:50:12.310Z,31.20
2022-12-18T07:52:43.430Z,31.20
2022-12-18T07:55:13.129Z,33.70
2022-12-18T07:57:50.532Z,28.10
2022-12-18T08:00:21.468Z,28.40
2022-12-18T08:02:51.145Z,31.90
2022-12-18T08:05:22.301Z,31.80
2022-12-18T08:07:55.995Z,41.80
2022-12-18T08:10:26.401Z,33.40
2022-12-18T08:13:00.026Z,34.50
2022-12-18T08:15:32.365Z,34.50
2022-12-18T08:18:01.976Z,33.30
2022-12-18T08:20:31.175Z,33.00
2022-12-18T08:23:02.616Z,34.30
2022-12-18T08:25:32.988Z,31.30
2022-12-18T08:28:02.026Z,35.50
2022-12-18T08:30:31.329Z,34.40
2022-12-18T08:33:00.986Z,34.30
2022-12-18T08:35:36.387Z,32.90
2022-12-18T08:38:07.155Z,28.20
2022-12-18T08:40:37.470Z,29.60
2022-12-18T08:47:54.180Z,30.40
2022-12-18T08:50:23.347Z,29.90
2022-12-18T08:52:54.589Z,28.70
2022-12-18T08:55:24.844Z,33.10
2022-12-18T08:57:55.500Z,35.50
2022-12-18T09:00:27.272Z,44.10
2022-12-18T09:02:56.523Z,43.60
2022-12-18T09:05:25.773Z,42.40
2022-12-18T09:07:55.090Z,37.40
2022-12-18T09:10:25.010Z,49.20
2022-12-18T09:12:54.767Z,49.20
2022-12-18T09:15:25.137Z,43.10
2022-12-18T09:17:54.312Z,40.90
2022-12-18T09:20:26.541Z,40.40
2022-12-18T09:22:57.200Z,39.10
2022-12-18T09:25:26.390Z,44.20
2022-12-18T09:27:55.300Z,39.40
2022-12-18T09:30:24.468Z,43.80
2022-12-18T09:32:59.226Z,53.30
2022-12-18T09:35:29.410Z,46.50
2022-12-18T09:37:59.324Z,43.00
2022-12-18T09:40:35.354Z,43.60
2022-12-18T09:43:35.952Z,42.40
2022-12-18T09:46:13.495Z,43.40
2022-12-18T09:48:47.764Z,42.70
2022-12-18T09:56:19.682Z,61.00
2022-12-18T09:59:21.589Z,77.50
2022-12-18T10:01:56.430Z,65.00
2022-12-18T10:09:43.162Z,91.40
2022-12-18T10:13:04.305Z,114.10
2022-12-18T10:24:44.499Z,88.30
2022-12-18T10:27:38.919Z,122.10
2022-12-18T10:30:48.902Z,94.70
2022-12-18T10:33:44.783Z,42.10
2022-12-18T10:36:22.794Z,62.00
2022-12-18T10:38:55.191Z,60.20
2022-12-18T10:41:35.177Z,43.70
2022-12-18T10:44:21.349Z,39.00
2022-12-18T10:47:20.072Z,66.80
2022-12-18T10:53:45.529Z,31.30
2022-12-18T10:56:33.858Z,33.60
2022-12-18T10:59:12.257Z,38.80
2022-12-18T11:01:52.438Z,33.00
2022-12-18T11:04:27.825Z,33.90
2022-12-18T11:09:42.669Z,31.10
2022-12-18T11:12:18.389Z,38.20
2022-12-18T11:14:51.940Z,30.40
2022-12-18T11:17:28.979Z,29.00
2022-12-18T11:20:20.709Z,32.60
2022-12-18T11:23:20.533Z,36.00
2022-12-18T11:26:04.481Z,30.90
2022-12-18T11:28:40.492Z,62.50
2022-12-18T11:31:35.355Z,36.70
2022-12-18T11:34:30.688Z,40.60
2022-12-18T11:37:06.474Z,30.70
2022-12-18T11:39:42.520Z,30.20
2022-12-18T11:43:04.651Z,37.80
2022-12-18T11:45:38.602Z,32.40
2022-12-18T11:48:39.264Z,39.80
2022-12-18T11:51:26.209Z,62.10
2022-12-18T11:53:58.510Z,33.00
2022-12-18T11:56:39.761Z,25.50
2022-12-18T11:59:35.911Z,26.50
2022-12-18T12:02:27.211Z,26.70
2022-12-18T12:05:03.971Z,34.20
2022-12-18T12:08:03.698Z,32.50
2022-12-18T12:10:43.185Z,34.20
2022-12-18T12:13:21.486Z,24.00
2022-12-18T12:16:43.216Z,30.00
2022-12-18T12:19:20.848Z,29.60
2022-12-18T12:22:14.705Z,30.10
2022-12-18T12:24:51.214Z,33.10
2022-12-18T12:27:35.495Z,35.20
2022-12-18T12:30:05.338Z,32.40
2022-12-18T12:33:01.790Z,31.60
2022-12-18T12:35:55.843Z,27.90
2022-12-18T12:38:34.765Z,29.90
2022-12-18T12:41:29.856Z,49.50
2022-12-18T12:44:03.306Z,42.40
2022-12-18T12:46:38.696Z,66.00
2022-12-18T12:49:24.413Z,46.50
2022-12-18T12:52:03.130Z,34.70
2022-12-18T12:54:36.734Z,30.80
2022-12-18T12:57:24.808Z,38.40
2022-12-18T13:00:16.507Z,71.60
2022-12-18T13:03:04.495Z,30.60
2022-12-18T13:05:55.870Z,53.10
2022-12-18T13:08:31.225Z,55.70
2022-12-18T13:11:22.746Z,48.00
2022-12-18T13:13:57.034Z,45.00
2022-12-18T13:16:31.391Z,49.20
2022-12-18T13:19:00.992Z,48.40
2022-12-18T13:21:34.928Z,33.40
2022-12-18T13:24:26.526Z,38.70
2022-12-18T13:26:55.913Z,44.50
2022-12-18T13:29:47.659Z,34.70
2022-12-18T13:32:24.789Z,36.30
2022-12-18T13:35:29.539Z,31.50
2022-12-18T13:38:00.702Z,27.80
2022-12-18T13:40:42.629Z,32.20
2022-12-18T13:43:58.733Z,67.40
2022-12-18T13:46:32.538Z,54.90
2022-12-18T13:49:23.312Z,88.20
2022-12-18T13:51:55.720Z,40.40
2022-12-18T13:54:42.343Z,37.60
2022-12-18T13:57:33.407Z,31.20
2022-12-18T14:00:30.323Z,35.20
2022-12-18T14:03:01.979Z,72.30
2022-12-18T14:05:42.874Z,35.70
2022-12-18T14:08:17.948Z,45.80
2022-12-18T14:10:50.472Z,34.00
2022-12-18T14:13:31.667Z,34.20
2022-12-18T14:16:06.406Z,38.00
2022-12-18T14:19:10.096Z,33.90
2022-12-18T14:21:52.611Z,30.00
2022-12-18T14:24:23.529Z,30.20
2022-12-18T14:26:58.450Z,29.50
2022-12-18T14:29:32.164Z,31.40
2022-12-18T14:32:19.898Z,41.40
2022-12-18T14:34:57.861Z,30.40
2022-12-18T14:37:29.490Z,29.20
2022-12-18T14:40:11.297Z,25.50
2022-12-18T14:42:41.602Z,28.00
2022-12-18T14:45:41.031Z,28.80
2022-12-18T14:48:27.070Z,29.00
2022-12-18T14:51:20.758Z,27.60
2022-12-18T14:53:58.066Z,31.20
2022-12-18T14:56:30.842Z,45.50
2022-12-18T14:59:25.042Z,155.60
2022-12-18T15:02:26.990Z,136.60
2022-12-18T15:05:18.806Z,112.50
2022-12-18T15:07:54.309Z,107.40
2022-12-18T15:10:28.158Z,99.00
2022-12-18T15:12:58.498Z,90.30
2022-12-18T15:15:46.765Z,55.70
2022-12-18T15:18:21.471Z,71.20
2022-12-18T15:21:12.706Z,45.10
2022-12-18T15:23:47.568Z,31.40
2022-12-18T15:26:21.448Z,28.70
2022-12-18T15:29:04.195Z,38.60
2022-12-18T15:31:37.243Z,36.30
2022-12-18T15:34:23.338Z,33.20
2022-12-18T15:36:58.134Z,45.20
2022-12-18T15:39:29.137Z,30.00
2022-12-18T15:42:18.021Z,31.20
2022-12-18T15:44:52.913Z,38.10
2022-12-18T15:47:23.809Z,30.70
2022-12-18T15:49:54.273Z,39.80
2022-12-18T15:52:27.627Z,30.10
2022-12-18T15:55:19.114Z,25.50
2022-12-18T15:57:50.021Z,33.20
2022-12-18T16:00:22.017Z,33.70
2022-12-18T16:02:53.572Z,42.30
2022-12-18T16:05:27.613Z,61.20
2022-12-18T16:08:03.041Z,63.80
2022-12-18T16:10:36.885Z,76.20
2022-12-18T16:13:13.937Z,49.90
2022-12-18T16:15:45.972Z,43.80
2022-12-18T16:18:19.003Z,52.00
2022-12-18T16:20:51.658Z,49.50
2022-12-18T16:23:22.600Z,48.90
2022-12-18T16:25:55.379Z,51.00
2022-12-18T16:28:27.195Z,34.10
2022-12-18T16:30:59.612Z,78.00
2022-12-18T16:33:33.004Z,43.30
2022-12-18T16:36:04.642Z,84.00
2022-12-18T16:38:39.222Z,49.20
2022-12-18T16:41:33.664Z,61.70
2022-12-18T16:44:05.841Z,44.10
2022-12-18T16:46:39.543Z,46.80
2022-12-18T16:49:12.290Z,27.70
2022-12-18T16:51:45.820Z,23.30
2022-12-18T16:54:19.794Z,26.10
2022-12-18T16:56:53.194Z,31.30
2022-12-18T16:59:27.324Z,27.60
2022-12-18T17:01:59.508Z,37.80
2022-12-18T17:04:31.356Z,27.90
2022-12-18T17:07:02.812Z,26.80
2022-12-18T17:09:34.963Z,26.70
2022-12-18T17:12:06.898Z,30.80
2022-12-18T17:14:44.040Z,26.90
2022-12-18T17:17:23.781Z,26.30
2022-12-18T17:19:55.473Z,30.40
2022-12-18T17:22:29.115Z,36.60
2022-12-18T17:25:02.322Z,39.30
2022-12-18T17:27:35.562Z,42.90
2022-12-18T17:30:18.376Z,36.50
2022-12-18T17:32:50.904Z,66.30
2022-12-18T17:35:22.671Z,42.00
2022-12-18T17:37:54.194Z,47.90
2022-12-18T17:40:26.638Z,46.10
2022-12-18T17:43:22.883Z,32.90
2022-12-18T17:45:55.124Z,41.40
2022-12-18T17:48:27.564Z,54.20
2022-12-18T17:51:07.485Z,62.30
2022-12-18T17:53:41.258Z,59.10
2022-12-18T17:56:17.997Z,48.30
2022-12-18T17:58:52.531Z,35.40
2022-12-18T18:01:40.935Z,58.40
2022-12-18T18:04:16.857Z,62.80
2022-12-18T18:06:47.324Z,52.10
2022-12-18T18:09:20.690Z,37.70
2022-12-18T18:12:12.537Z,37.30
2022-12-18T18:14:45.801Z,48.60
2022-12-18T18:17:17.165Z,44.50
2022-12-18T18:19:50.153Z,40.80
2022-12-18T18:22:21.081Z,43.50
2022-12-18T18:24:53.554Z,32.00
2022-12-18T18:27:33.966Z,52.50
2022-12-18T18:30:12.082Z,38.50
2022-12-18T18:32:43.637Z,43.00
2022-12-18T18:35:30.929Z,61.70
2022-12-18T18:38:05.137Z,39.00
2022-12-18T18:40:35.455Z,48.60
2022-12-18T18:43:06.114Z,54.50
2022-12-18T18:45:38.494Z,74.20
2022-12-18T18:48:10.044Z,64.20
2022-12-18T18:50:40.177Z,65.80
2022-12-18T18:53:10.456Z,45.20
2022-12-18T18:55:45.310Z,70.30
2022-12-18T18:58:19.380Z,39.80
2022-12-18T19:00:59.556Z,54.30
2022-12-18T19:03:33.183Z,92.10
2022-12-18T19:06:03.767Z,66.00
2022-12-18T19:08:37.882Z,82.70
2022-12-18T19:11:34.611Z,81.70
2022-12-18T19:14:14.223Z,51.50
2022-12-18T19:16:46.676Z,52.50
2022-12-18T19:19:22.018Z,63.40
2022-12-18T19:21:53.747Z,42.90
2022-12-18T19:24:28.827Z,99.70
2022-12-18T19:27:00.242Z,62.90
2022-12-18T19:29:32.456Z,107.70
2022-12-18T19:32:05.342Z,48.80
2022-12-18T19:34:35.706Z,61.00
2022-12-18T19:37:07.379Z,53.60
2022-12-18T19:39:46.980Z,55.90
2022-12-18T19:42:47.118Z,75.90
2022-12-18T19:45:20.661Z,74.90
2022-12-18T19:47:53.685Z,42.50
2022-12-18T19:50:25.481Z,35.10
2022-12-18T19:52:56.854Z,66.40
2022-12-18T19:55:29.735Z,58.90
2022-12-18T19:58:01.514Z,71.80
2022-12-18T20:00:34.241Z,44.70
2022-12-18T20:03:18.198Z,42.60
2022-12-18T20:05:56.793Z,91.30
2022-12-18T20:08:31.391Z,45.40
2022-12-18T20:11:05.877Z,53.50
2022-12-18T20:13:37.162Z,50.00
2022-12-18T20:16:07.918Z,42.80
2022-12-18T20:18:41.409Z,93.00
2022-12-18T20:21:14.515Z,36.40
2022-12-18T20:23:46.112Z,41.70
2022-12-18T20:26:20.406Z,45.30
2022-12-18T20:28:53.294Z,32.70
2022-12-18T20:31:25.326Z,40.00
2022-12-18T20:34:01.582Z,42.00
2022-12-18T20:36:36.209Z,36.90
2022-12-18T20:39:10.021Z,51.70
2022-12-18T20:42:09.558Z,43.10
2022-12-18T20:44:40.352Z,47.80
2022-12-18T20:47:10.729Z,52.30
2022-12-18T20:49:42.667Z,47.70
2022-12-18T20:52:19.023Z,42.30
2022-12-18T20:54:49.642Z,34.70
2022-12-18T20:57:23.033Z,37.40
2022-12-18T20:59:56.044Z,40.20
2022-12-18T21:02:27.000Z,70.00
2022-12-18T21:04:59.947Z,52.10
2022-12-18T21:07:29.830Z,38.30
2022-12-18T21:10:05.369Z,30.70
2022-12-18T21:12:42.696Z,25.30
2022-12-18T21:15:26.796Z,29.40
2022-12-18T21:17:58.930Z,43.70
2022-12-18T21:20:28.865Z,33.40
2022-12-18T21:23:03.473Z,30.50
2022-12-18T21:25:46.938Z,37.40
2022-12-18T21:28:19.548Z,32.10
2022-12-18T21:30:50.904Z,36.50
2022-12-18T21:33:20.099Z,29.00
2022-12-18T21:35:49.409Z,34.70
2022-12-18T21:38:18.891Z,29.60
2022-12-18T21:40:48.239Z,35.60
2022-12-18T21:44:06.026Z,34.50
2022-12-18T21:46:38.419Z,32.30
2022-12-18T21:49:09.777Z,38.20
2022-12-18T21:51:40.402Z,34.50
2022-12-18T21:54:12.646Z,36.90
2022-12-18T21:56:56.389Z,36.70
2022-12-18T21:59:31.881Z,33.20
2022-12-18T22:02:05.501Z,31.10
2022-12-18T22:04:34.618Z,35.10
2022-12-18T22:07:06.254Z,32.50
2022-12-18T22:09:37.693Z,35.80
2022-12-18T22:12:09.397Z,36.80
2022-12-18T22:14:39.189Z,40.00
2022-12-18T22:17:11.607Z,34.50
2022-12-18T22:19:43.162Z,41.10
2022-12-18T22:22:12.794Z,36.00
2022-12-18T22:24:45.067Z,36.20
2022-12-18T22:27:14.157Z,31.90
2022-12-18T22:30:03.478Z,33.80
2022-12-18T22:32:34.225Z,32.60
2022-12-18T22:35:10.480Z,48.30
2022-12-18T22:37:42.678Z,33.60
2022-12-18T22:40:24.134Z,34.10
2022-12-18T22:43:45.569Z,35.50
2022-12-18T22:46:19.289Z,34.10
2022-12-18T22:48:52.997Z,34.30
2022-12-18T22:51:22.179Z,35.30
2022-12-18T22:53:51.769Z,33.30
2022-12-18T22:56:22.365Z,32.30
2022-12-18T22:58:52.885Z,35.10
2022-12-18T23:01:27.322Z,38.30
2022-12-18T23:03:58.036Z,31.50
2022-12-18T23:06:30.372Z,37.90
2022-12-18T23:08:59.746Z,46.70
2022-12-18T23:11:30.205Z,32.00
2022-12-18T23:13:59.266Z,30.00
2022-12-18T23:16:29.712Z,30.20
2022-12-18T23:18:59.645Z,27.90
2022-12-18T23:21:30.373Z,27.60
2022-12-18T23:23:59.760Z,27.40
2022-12-18T23:26:29.628Z,27.20
2022-12-18T23:28:59.218Z,28.90
2022-12-18T23:31:33.040Z,26.00
2022-12-18T23:34:04.615Z,25.70
2022-12-18T23:36:45.778Z,29.40
2022-12-18T23:39:29.379Z,29.90
2022-12-18T23:42:53.832Z,27.40
2022-12-18T23:45:22.934Z,29.40
2022-12-18T23:47:53.637Z,34.00
2022-12-18T23:50:28.654Z,36.90
2022-12-18T23:53:05.474Z,27.60
2022-12-18T23:55:40.601Z,40.50
2022-12-18T23:58:18.688Z,29.40
